createdAt,value
2022-11-04T00:00:46.062Z,3.83
2022-11-04T00:03:14.478Z,3.63
2022-11-04T00:05:41.401Z,3.60
2022-11-04T00:08:26.772Z,4.00
2022-11-04T00:11:16.346Z,3.27
2022-11-04T00:13:44.248Z,4.03
2022-11-04T00:16:30.081Z,3.57
2022-11-04T00:18:56.827Z,3.43
2022-11-04T00:21:42.580Z,4.30
2022-11-04T00:24:50.215Z,4.10
2022-11-04T00:27:38.580Z,3.77
2022-11-04T00:30:08.567Z,3.63
2022-11-04T00:32:54.422Z,3.57
2022-11-04T00:35:21.831Z,3.43
2022-11-04T00:37:48.609Z,4.43
2022-11-04T00:40:40.587Z,3.83
2022-11-04T00:43:07.863Z,4.10
2022-11-04T00:45:35.014Z,3.70
2022-11-04T00:48:01.873Z,4.20
2022-11-04T00:50:29.253Z,3.90
2022-11-04T00:53:03.424Z,3.77
2022-11-04T00:55:30.210Z,3.77
2022-11-04T00:57:58.534Z,3.90
2022-11-04T01:00:29.689Z,3.97
2022-11-04T01:02:56.997Z,3.77
2022-11-04T01:05:23.876Z,3.53
2022-11-04T01:07:50.603Z,3.87
2022-11-04T01:10:17.327Z,3.77
2022-11-04T01:12:45.474Z,3.70
2022-11-04T01:15:12.933Z,4.17
2022-11-04T01:17:39.807Z,3.90
2022-11-04T01:20:07.010Z,4.10
2022-11-04T01:22:35.261Z,3.73
2022-11-04T01:25:02.027Z,3.80
2022-11-04T01:27:28.752Z,4.10
2022-11-04T01:29:55.508Z,4.20
2022-11-04T01:32:22.183Z,3.97
2022-11-04T01:34:48.964Z,3.77
2022-11-04T01:37:15.723Z,4.00
2022-11-04T01:39:43.184Z,3.40
2022-11-04T01:42:13.465Z,4.23
2022-11-04T01:44:49.683Z,4.07
2022-11-04T01:47:18.497Z,3.93
2022-11-04T01:49:49.957Z,4.10
2022-11-04T01:52:22.943Z,4.17
2022-11-04T01:54:53.375Z,4.63
2022-11-04T01:57:28.786Z,4.33
2022-11-04T02:00:00.413Z,4.30
2022-11-04T02:02:27.491Z,4.23
2022-11-04T02:04:54.482Z,4.37
2022-11-04T02:07:21.991Z,4.03
2022-11-04T02:09:50.195Z,4.57
2022-11-04T02:12:35.382Z,4.30
2022-11-04T02:15:03.638Z,4.60
2022-11-04T02:17:30.320Z,4.23
2022-11-04T02:20:14.802Z,4.40
2022-11-04T02:23:09.323Z,4.30
2022-11-04T02:26:13.971Z,4.47
2022-11-04T02:29:28.700Z,4.33
2022-11-04T02:32:26.284Z,4.30
2022-11-04T02:35:33.800Z,3.97
2022-11-04T02:38:13.206Z,3.93
2022-11-04T02:40:51.360Z,4.27
2022-11-04T02:43:45.078Z,4.53
2022-11-04T02:46:21.403Z,4.63
2022-11-04T02:48:54.036Z,4.13
2022-11-04T02:51:28.601Z,4.50
2022-11-04T02:54:16.563Z,4.83
2022-11-04T02:56:49.038Z,4.70
2022-11-04T02:59:27.354Z,4.90
2022-11-04T03:01:56.478Z,5.30
2022-11-04T03:04:29.437Z,4.80
2022-11-04T03:06:59.743Z,5.30
2022-11-04T03:09:29.571Z,5.67
2022-11-04T03:12:04.464Z,5.07
2022-11-04T03:14:41.539Z,5.50
2022-11-04T03:17:18.348Z,5.20
2022-11-04T03:19:54.668Z,5.47
2022-11-04T03:22:24.157Z,5.40
2022-11-04T03:24:51.872Z,5.60
2022-11-04T03:27:39.103Z,6.50
2022-11-04T03:30:12.593Z,6.00
2022-11-04T03:32:50.781Z,5.97
2022-11-04T03:35:18.202Z,5.80
2022-11-04T03:37:47.661Z,5.80
2022-11-04T03:40:16.111Z,5.60
2022-11-04T03:42:52.856Z,6.00
2022-11-04T03:45:19.654Z,5.97
2022-11-04T03:48:12.564Z,5.50
2022-11-04T03:50:44.943Z,6.10
2022-11-04T03:53:14.255Z,6.17
2022-11-04T03:55:59.910Z,5.57
2022-11-04T03:58:35.694Z,5.20
2022-11-04T04:01:43.715Z,5.87
2022-11-04T04:04:20.423Z,5.40
2022-11-04T04:06:53.750Z,6.13
2022-11-04T04:09:51.866Z,5.50
2022-11-04T04:12:35.536Z,5.80
2022-11-04T04:15:07.177Z,5.63
2022-11-04T04:17:48.342Z,5.53
2022-11-04T04:20:20.598Z,5.83
2022-11-04T04:22:53.477Z,6.30
2022-11-04T04:25:42.392Z,6.37
2022-11-04T04:28:13.689Z,5.37
2022-11-04T04:30:42.473Z,5.87
2022-11-04T04:33:13.764Z,5.77
2022-11-04T04:35:44.741Z,6.20
2022-11-04T04:38:40.834Z,5.53
2022-11-04T04:41:32.769Z,6.10
2022-11-04T04:44:18.003Z,5.87
2022-11-04T04:46:50.591Z,6.40
2022-11-04T04:49:20.932Z,6.73
2022-11-04T04:51:48.197Z,6.40
2022-11-04T04:54:15.440Z,6.40
2022-11-04T04:56:42.232Z,6.47
2022-11-04T04:59:09.666Z,6.20
2022-11-04T05:02:01.297Z,6.20
2022-11-04T05:04:30.126Z,6.53
2022-11-04T05:06:56.919Z,6.68
2022-11-04T05:09:28.347Z,7.17
2022-11-04T05:11:59.246Z,6.23
2022-11-04T05:14:26.024Z,6.60
2022-11-04T05:16:56.326Z,7.10
2022-11-04T05:19:23.018Z,6.40
2022-11-04T05:21:51.619Z,7.00
2022-11-04T05:24:18.510Z,6.60
2022-11-04T05:26:48.708Z,7.47
2022-11-04T05:29:16.143Z,6.90
2022-11-04T05:31:42.928Z,7.13
2022-11-04T05:34:15.473Z,6.43
2022-11-04T05:36:45.852Z,7.00
2022-11-04T05:39:14.161Z,6.67
2022-11-04T05:41:41.058Z,6.60
2022-11-04T05:44:09.685Z,6.00
2022-11-04T05:46:36.950Z,6.37
2022-11-04T05:49:03.924Z,6.20
2022-11-04T05:51:30.857Z,5.50
2022-11-04T05:53:58.052Z,5.40
2022-11-04T05:56:24.856Z,5.23
2022-11-04T05:58:51.524Z,4.40
2022-11-04T06:01:32.045Z,4.87
2022-11-04T06:04:00.527Z,5.07
2022-11-04T06:06:30.374Z,4.47
2022-11-04T06:08:58.585Z,4.60
2022-11-04T06:11:27.162Z,4.33
2022-11-04T06:13:55.115Z,4.40
2022-11-04T06:16:22.462Z,4.30
2022-11-04T06:18:49.375Z,4.50
2022-11-04T06:21:18.354Z,3.97
2022-11-04T06:23:45.203Z,4.40
2022-11-04T06:26:13.618Z,4.43
2022-11-04T06:28:40.820Z,3.00
2022-11-04T06:31:10.390Z,2.70
2022-11-04T06:33:37.442Z,2.93
2022-11-04T06:36:06.754Z,2.60
2022-11-04T06:38:36.201Z,2.27
2022-11-04T06:43:31.829Z,2.17
2022-11-04T06:46:03.798Z,1.90
2022-11-04T06:48:31.421Z,1.47
2022-11-04T06:50:59.954Z,1.50
2022-11-04T06:53:28.223Z,1.50
2022-11-04T06:56:02.196Z,1.60
2022-11-04T06:58:28.967Z,1.70
2022-11-04T07:00:58.897Z,1.57
2022-11-04T07:03:25.717Z,1.30
2022-11-04T07:05:52.525Z,1.37
2022-11-04T07:08:19.623Z,2.10
2022-11-04T07:10:46.348Z,1.20
2022-11-04T07:13:13.362Z,1.83
2022-11-04T07:15:40.373Z,1.70
2022-11-04T07:18:07.490Z,1.40
2022-11-04T07:20:36.478Z,1.40
2022-11-04T07:23:03.344Z,1.27
2022-11-04T07:25:30.395Z,1.50
2022-11-04T07:28:01.123Z,1.27
2022-11-04T07:30:29.605Z,1.43
2022-11-04T07:33:21.769Z,1.63
2022-11-04T07:38:50.319Z,1.50
2022-11-04T07:41:18.161Z,1.30
2022-11-04T07:43:54.271Z,1.47
2022-11-04T07:46:21.652Z,1.53
2022-11-04T07:48:48.582Z,1.50
2022-11-04T07:51:18.934Z,1.43
2022-11-04T07:56:45.664Z,1.30
2022-11-04T07:59:12.688Z,1.33
2022-11-04T08:01:40.669Z,1.00
2022-11-04T08:04:11.632Z,1.10
2022-11-04T08:06:41.253Z,1.20
2022-11-04T08:09:10.377Z,1.20
2022-11-04T08:11:42.208Z,1.47
2022-11-04T08:14:14.153Z,1.30
2022-11-04T08:16:52.929Z,1.43
2022-11-04T08:19:23.485Z,1.20
2022-11-04T08:21:52.545Z,1.20
2022-11-04T08:24:23.539Z,2.13
2022-11-04T08:26:54.182Z,1.40
2022-11-04T08:29:23.528Z,1.33
2022-11-04T08:31:51.524Z,1.50
2022-11-04T08:34:20.204Z,1.20
2022-11-04T08:36:48.418Z,1.60
2022-11-04T08:39:19.026Z,1.47
2022-11-04T08:41:48.038Z,2.40
2022-11-04T08:44:18.839Z,1.80
2022-11-04T08:46:53.261Z,1.30
2022-11-04T08:49:27.577Z,1.50
2022-11-04T08:52:06.380Z,1.70
2022-11-04T08:54:38.956Z,1.47
2022-11-04T08:57:12.721Z,1.43
2022-11-04T08:59:50.017Z,1.77
2022-11-04T09:19:52.754Z,2.20
2022-11-04T10:52:03.300Z,1.33
2022-11-04T12:31:39.448Z,1.87
2022-11-04T12:34:19.583Z,1.50
2022-11-04T12:37:19.819Z,1.80
2022-11-04T13:16:25.779Z,1.83
2022-11-04T13:19:39.899Z,2.07
2022-11-04T13:22:25.481Z,2.17
2022-11-04T13:31:16.477Z,1.47
2022-11-04T13:41:08.963Z,1.60
2022-11-04T13:44:01.344Z,1.87
2022-11-04T13:46:37.148Z,1.53
2022-11-04T13:49:47.494Z,1.83
2022-11-04T13:52:17.968Z,1.73
2022-11-04T13:57:58.792Z,1.50
2022-11-04T14:13:10.824Z,1.30
2022-11-04T14:16:53.075Z,1.63
2022-11-04T14:32:03.852Z,1.50
2022-11-04T14:34:39.224Z,1.60
2022-11-04T14:37:28.140Z,1.37
2022-11-04T14:48:37.214Z,1.60
2022-11-04T14:51:05.986Z,1.63
2022-11-04T14:53:37.354Z,1.97
2022-11-04T14:56:23.044Z,2.00
2022-11-04T14:59:03.489Z,1.47
2022-11-04T15:01:35.548Z,2.00
2022-11-04T15:04:28.445Z,1.70
2022-11-04T15:07:04.767Z,1.50
2022-11-04T15:09:37.404Z,1.60
2022-11-04T15:12:35.574Z,1.27
2022-11-04T15:15:02.911Z,1.40
2022-11-04T15:17:34.407Z,1.60
2022-11-04T15:20:05.130Z,1.50
2022-11-04T15:22:32.269Z,2.17
2022-11-04T15:27:57.609Z,2.00
2022-11-04T15:30:31.396Z,1.77
2022-11-04T15:33:25.576Z,2.33
2022-11-04T15:35:53.176Z,2.10
2022-11-04T15:38:21.004Z,2.47
2022-11-04T15:40:50.936Z,1.83
2022-11-04T15:43:19.267Z,2.30
2022-11-04T15:45:56.215Z,1.60
2022-11-04T15:48:28.203Z,1.87
2022-11-04T15:51:12.502Z,2.27
2022-11-04T15:53:55.042Z,1.63
2022-11-04T15:56:29.077Z,1.90
2022-11-04T15:58:58.295Z,1.90
2022-11-04T16:01:26.422Z,1.70
2022-11-04T16:04:01.497Z,1.50
2022-11-04T16:06:34.921Z,1.93
2022-11-04T16:09:17.686Z,1.60
2022-11-04T16:12:06.661Z,1.87
2022-11-04T16:14:34.042Z,1.83
2022-11-04T16:17:01.511Z,1.80
2022-11-04T16:20:08.733Z,2.10
2022-11-04T16:22:38.925Z,2.17
2022-11-04T16:25:12.695Z,1.87
2022-11-04T16:27:42.152Z,2.17
2022-11-04T16:30:23.968Z,1.90
2022-11-04T16:33:07.086Z,1.77
2022-11-04T16:35:40.117Z,2.70
2022-11-04T16:38:07.513Z,2.30
2022-11-04T16:40:36.451Z,1.80
2022-11-04T16:43:03.523Z,1.90
2022-11-04T16:45:36.234Z,2.47
2022-11-04T16:48:03.960Z,1.83
2022-11-04T16:50:32.686Z,2.23
2022-11-04T16:53:01.880Z,1.97
2022-11-04T16:55:30.108Z,2.67
2022-11-04T16:58:04.837Z,2.07
2022-11-04T17:00:35.751Z,2.10
2022-11-04T17:03:22.200Z,2.23
2022-11-04T17:05:51.423Z,2.20
2022-11-04T17:08:19.132Z,2.40
2022-11-04T17:10:51.986Z,2.37
2022-11-04T17:13:19.583Z,2.30
2022-11-04T17:15:48.534Z,2.03
2022-11-04T17:18:17.379Z,2.40
2022-11-04T17:20:55.878Z,3.13
2022-11-04T17:23:26.579Z,2.60
2022-11-04T17:25:54.698Z,3.10
2022-11-04T17:28:22.294Z,2.73
2022-11-04T17:30:51.351Z,3.17
2022-11-04T17:33:19.734Z,2.43
2022-11-04T17:35:49.711Z,3.07
2022-11-04T17:38:18.456Z,3.90
2022-11-04T17:41:04.817Z,3.00
2022-11-04T17:52:45.731Z,5.30
2022-11-04T17:55:16.920Z,4.70
2022-11-04T17:57:45.465Z,4.40
2022-11-04T18:00:14.647Z,11.47
2022-11-04T18:03:09.012Z,3.97
2022-11-04T18:05:37.717Z,3.63
2022-11-04T18:08:05.050Z,4.40
2022-11-04T18:10:32.295Z,3.20
2022-11-04T18:12:59.364Z,2.77
2022-11-04T18:15:26.379Z,3.57
2022-11-04T18:17:54.083Z,3.77
2022-11-04T18:20:22.405Z,4.20
2022-11-04T18:22:49.482Z,5.33
2022-11-04T18:25:17.723Z,4.00
2022-11-04T18:27:49.440Z,6.00
2022-11-04T18:30:23.783Z,8.97
2022-11-04T18:33:02.824Z,6.87
2022-11-04T18:35:33.586Z,4.23
2022-11-04T18:41:04.838Z,4.50
2022-11-04T18:43:44.273Z,8.33
2022-11-04T18:49:07.211Z,5.87
2022-11-04T18:51:37.482Z,5.43
2022-11-04T19:09:47.701Z,3.53
2022-11-04T19:16:12.371Z,3.70
2022-11-04T19:18:57.450Z,4.00
2022-11-04T19:21:42.229Z,3.67
2022-11-04T19:24:43.878Z,4.23
2022-11-04T19:30:20.514Z,3.30
2022-11-04T19:47:37.982Z,3.40
2022-11-04T19:50:12.182Z,3.30
2022-11-04T19:52:42.449Z,2.93
2022-11-04T19:55:14.373Z,3.70
2022-11-04T19:57:45.214Z,3.77
2022-11-04T20:00:19.093Z,3.13
2022-11-04T20:02:50.713Z,3.20
2022-11-04T20:05:24.448Z,3.37
2022-11-04T20:08:06.095Z,3.90
2022-11-04T20:10:41.606Z,3.40
2022-11-04T20:13:37.024Z,4.00
2022-11-04T20:16:34.665Z,4.20
2022-11-04T20:19:30.304Z,4.60
2022-11-04T20:21:59.135Z,4.57
2022-11-04T20:24:32.603Z,5.30
2022-11-04T20:27:06.016Z,4.10
2022-11-04T20:29:36.138Z,3.73
2022-11-04T20:32:06.667Z,4.43
2022-11-04T20:34:38.320Z,3.60
2022-11-04T20:37:08.346Z,3.17
2022-11-04T20:39:41.441Z,3.60
2022-11-04T20:42:12.852Z,3.30
2022-11-04T20:44:43.561Z,3.33
2022-11-04T20:47:19.739Z,2.67
2022-11-04T20:49:58.712Z,2.77
2022-11-04T20:52:39.079Z,2.70
2022-11-04T20:55:13.272Z,3.00
2022-11-04T20:57:54.050Z,3.40
2022-11-04T21:00:26.802Z,2.53
2022-11-04T21:03:03.561Z,3.33
2022-11-04T21:08:10.906Z,2.93
2022-11-04T21:10:45.984Z,3.10
2022-11-04T21:13:24.203Z,2.80
2022-11-04T21:16:08.083Z,2.90
2022-11-04T21:18:57.345Z,2.90
2022-11-04T21:21:29.204Z,3.17
2022-11-04T21:24:25.143Z,2.97
2022-11-04T21:26:57.391Z,3.20
2022-11-04T21:29:29.371Z,3.50
2022-11-04T21:32:06.750Z,3.13
2022-11-04T21:34:40.034Z,2.83
2022-11-04T21:37:16.499Z,3.00
2022-11-04T21:39:48.135Z,3.00
2022-11-04T21:42:35.158Z,3.17
2022-11-04T21:47:56.880Z,2.30
2022-11-04T21:50:28.804Z,3.10
2022-11-04T21:53:03.655Z,3.30
2022-11-04T22:04:33.207Z,2.87
2022-11-04T22:18:49.631Z,3.37
2022-11-04T22:27:09.986Z,4.63
2022-11-04T22:29:41.864Z,3.43
2022-11-04T22:32:17.763Z,4.57
2022-11-04T22:34:50.050Z,4.20
2022-11-04T22:40:36.058Z,3.90
2022-11-04T22:46:31.217Z,3.77
2022-11-04T22:49:11.260Z,4.00
2022-11-04T22:51:41.293Z,3.53
2022-11-04T22:54:11.996Z,4.20
2022-11-04T22:56:43.961Z,4.97
2022-11-04T22:59:13.414Z,4.67
2022-11-04T23:01:47.551Z,5.77
2022-11-04T23:04:21.313Z,4.57
2022-11-04T23:09:58.426Z,3.83
2022-11-04T23:13:03.342Z,4.37
2022-11-04T23:22:07.303Z,4.37
2022-11-04T23:24:57.113Z,4.00
2022-11-04T23:28:00.286Z,3.97
2022-11-04T23:30:45.168Z,4.40
2022-11-04T23:33:20.912Z,4.67
2022-11-04T23:36:12.206Z,3.63
2022-11-04T23:42:20.364Z,3.37
2022-11-04T23:48:25.733Z,3.80
2022-11-04T23:51:17.444Z,3.47
2022-11-04T23:54:05.923Z,3.70
2022-11-04T23:56:52.883Z,4.43
2022-11-04T23:59:40.402Z,3.20
